sensor_id;sensor_type;location;lat;lon;timestamp;temperature;humidity
13850;DHT22;6995;52.618;13.488;2023-01-08T04:40:26;6.10;1.00
13850;DHT22;6995;52.618;13.488;2023-01-08T04:42:51;6.00;1.00
13850;DHT22;6995;52.618;13.488;2023-01-08T04:45:17;6.00;1.00
13850;DHT22;6995;52.618;13.488;2023-01-08T04:47:43;6.10;1.00
13850;DHT22;6995;52.618;13.488;2023-01-08T04:50:09;6.10;1.00
13850;DHT22;6995;52.618;13.488;2023-01-08T04:52:35;6.00;1.00
13850;DHT22;6995;52.618;13.488;2023-01-08T04:55:00;6.00;1.00
13850;DHT22;6995;52.618;13.488;2023-01-08T04:57:26;6.00;1.00
13850;DHT22;6995;52.618;13.488;2023-01-08T04:59:52;6.00;1.00
13850;DHT22;6995;52.618;13.488;2023-01-08T05:02:17;6.00;1.00
13850;DHT22;6995;52.618;13.488;2023-01-08T05:04:43;6.00;1.00
13850;DHT22;6995;52.618;13.488;2023-01-08T05:07:09;6.00;1.00
13850;DHT22;6995;52.618;13.488;2023-01-08T05:09:34;6.00;1.00
13850;DHT22;6995;52.618;13.488;2023-01-08T05:12:00;6.00;1.00
13850;DHT22;6995;52.618;13.488;2023-01-08T05:14:26;6.00;1.00
13850;DHT22;6995;52.618;13.488;2023-01-08T05:16:51;6.10;1.00
13850;DHT22;6995;52.618;13.488;2023-01-08T05:19:17;6.10;1.00
13850;DHT22;6995;52.618;13.488;2023-01-08T05:21:42;6.10;1.00
13850;DHT22;6995;52.618;13.488;2023-01-08T05:24:08;6.10;1.00
13850;DHT22;6995;52.618;13.488;2023-01-08T05:26:34;6.20;1.00
13850;DHT22;6995;52.618;13.488;2023-01-08T05:29:00;6.20;1.00
13850;DHT22;6995;52.618;13.488;2023-01-08T05:31:25;6.10;1.00
13850;DHT22;6995;52.618;13.488;2023-01-08T05:33:51;6.10;1.00
13850;DHT22;6995;52.618;13.488;2023-01-08T05:36:17;6.10;1.00
13850;DHT22;6995;52.618;13.488;2023-01-08T05:38:42;6.10;1.00
13850;DHT22;6995;52.618;13.488;2023-01-08T05:41:09;6.00;1.00
13850;DHT22;6995;52.618;13.488;2023-01-08T05:43:35;6.00;1.00
13850;DHT22;6995;52.618;13.488;2023-01-08T05:46:02;6.00;1.00
13850;DHT22;6995;52.618;13.488;2023-01-08T05:48:29;6.00;1.00
13850;DHT22;6995;52.618;13.488;2023-01-08T05:50:56;6.10;1.00
13850;DHT22;6995;52.618;13.488;2023-01-08T05:53:21;6.10;1.00
13850;DHT22;6995;52.618;13.488;2023-01-08T05:55:47;6.20;1.00
13850;DHT22;6995;52.618;13.488;2023-01-08T05:58:13;6.30;1.00
13850;DHT22;6995;52.618;13.488;2023-01-08T06:00:39;6.40;1.00
13850;DHT22;6995;52.618;13.488;2023-01-08T06:03:04;6.50;1.00
13850;DHT22;6995;52.618;13.488;2023-01-08T06:05:31;6.70;1.00
13850;DHT22;6995;52.618;13.488;2023-01-08T06:07:58;6.70;1.00
13850;DHT22;6995;52.618;13.488;2023-01-08T06:10:24;6.80;1.00
13850;DHT22;6995;52.618;13.488;2023-01-08T06:12:50;6.80;1.00
13850;DHT22;6995;52.618;13.488;2023-01-08T06:15:16;6.90;1.00
13850;DHT22;6995;52.618;13.488;2023-01-08T06:17:41;7.00;99.90
13850;DHT22;6995;52.618;13.488;2023-01-08T06:20:08;7.10;99.90
13850;DHT22;6995;52.618;13.488;2023-01-08T06:22:34;7.10;99.90
13850;DHT22;6995;52.618;13.488;2023-01-08T06:25:00;7.20;99.90
13850;DHT22;6995;52.618;13.488;2023-01-08T06:27:26;7.20;99.90
13850;DHT22;6995;52.618;13.488;2023-01-08T06:29:51;7.30;99.90
13850;DHT22;6995;52.618;13.488;2023-01-08T06:32:17;7.30;99.90
13850;DHT22;6995;52.618;13.488;2023-01-08T06:34:43;7.40;99.90
13850;DHT22;6995;52.618;13.488;2023-01-08T06:37:08;7.40;99.90
13850;DHT22;6995;52.618;13.488;2023-01-08T06:39:34;7.40;99.90
13850;DHT22;6995;52.618;13.488;2023-01-08T06:41:59;7.40;99.90
13850;DHT22;6995;52.618;13.488;2023-01-08T06:44:25;7.50;99.90
13850;DHT22;6995;52.618;13.488;2023-01-08T06:46:50;7.50;99.90
13850;DHT22;6995;52.618;13.488;2023-01-08T06:49:16;7.50;99.90
13850;DHT22;6995;52.618;13.488;2023-01-08T06:51:42;7.50;99.90
13850;DHT22;6995;52.618;13.488;2023-01-08T06:54:08;7.50;99.90
13850;DHT22;6995;52.618;13.488;2023-01-08T06:56:34;7.60;99.90
13850;DHT22;6995;52.618;13.488;2023-01-08T06:58:59;7.60;99.90
13850;DHT22;6995;52.618;13.488;2023-01-08T07:01:25;7.60;99.90
13850;DHT22;6995;52.618;13.488;2023-01-08T07:03:51;7.60;99.90
13850;DHT22;6995;52.618;13.488;2023-01-08T07:06:21;7.70;99.90
13850;DHT22;6995;52.618;13.488;2023-01-08T07:08:47;7.70;99.90
13850;DHT22;6995;52.618;13.488;2023-01-08T07:11:15;7.70;99.90
13850;DHT22;6995;52.618;13.488;2023-01-08T07:13:41;7.70;99.90
13850;DHT22;6995;52.618;13.488;2023-01-08T07:16:08;7.70;99.90
13850;DHT22;6995;52.618;13.488;2023-01-08T07:18:34;7.70;99.90
13850;DHT22;6995;52.618;13.488;2023-01-08T07:21:01;7.70;99.90
13850;DHT22;6995;52.618;13.488;2023-01-08T07:23:27;7.70;99.90
13850;DHT22;6995;52.618;13.488;2023-01-08T07:25:52;7.80;99.90
13850;DHT22;6995;52.618;13.488;2023-01-08T07:28:18;7.80;99.90
13850;DHT22;6995;52.618;13.488;2023-01-08T07:30:44;7.80;99.90
13850;DHT22;6995;52.618;13.488;2023-01-08T07:33:09;7.80;99.90
13850;DHT22;6995;52.618;13.488;2023-01-08T07:35:35;7.90;99.90
13850;DHT22;6995;52.618;13.488;2023-01-08T07:38:02;7.90;99.90
13850;DHT22;6995;52.618;13.488;2023-01-08T07:40:28;7.90;99.90
13850;DHT22;6995;52.618;13.488;2023-01-08T07:43:01;7.90;99.90
13850;DHT22;6995;52.618;13.488;2023-01-08T07:45:28;8.00;99.90
13850;DHT22;6995;52.618;13.488;2023-01-08T07:47:56;8.00;99.90
13850;DHT22;6995;52.618;13.488;2023-01-08T07:50:22;8.00;99.90
13850;DHT22;6995;52.618;13.488;2023-01-08T07:52:48;8.10;99.90
13850;DHT22;6995;52.618;13.488;2023-01-08T07:55:14;8.10;99.90
13850;DHT22;6995;52.618;13.488;2023-01-08T07:57:39;8.10;99.90
13850;DHT22;6995;52.618;13.488;2023-01-08T08:00:05;8.10;99.90
13850;DHT22;6995;52.618;13.488;2023-01-08T08:02:32;8.10;99.90
13850;DHT22;6995;52.618;13.488;2023-01-08T08:05:00;8.10;99.90
13850;DHT22;6995;52.618;13.488;2023-01-08T08:07:32;8.20;99.90
13850;DHT22;6995;52.618;13.488;2023-01-08T08:09:57;8.20;99.90
13850;DHT22;6995;52.618;13.488;2023-01-08T08:12:23;8.10;99.90
13850;DHT22;6995;52.618;13.488;2023-01-08T08:14:48;8.10;99.90
13850;DHT22;6995;52.618;13.488;2023-01-08T08:17:14;8.10;99.90
13850;DHT22;6995;52.618;13.488;2023-01-08T08:19:40;8.10;99.90
13850;DHT22;6995;52.618;13.488;2023-01-08T08:22:08;8.10;99.90
13850;DHT22;6995;52.618;13.488;2023-01-08T08:24:34;8.10;99.90
13850;DHT22;6995;52.618;13.488;2023-01-08T08:26:59;8.10;99.90
13850;DHT22;6995;52.618;13.488;2023-01-08T08:29:25;8.10;99.90
13850;DHT22;6995;52.618;13.488;2023-01-08T08:31:51;8.20;99.90
13850;DHT22;6995;52.618;13.488;2023-01-08T08:34:16;8.10;99.90
13850;DHT22;6995;52.618;13.488;2023-01-08T08:36:44;8.10;99.90
13850;DHT22;6995;52.618;13.488;2023-01-08T08:39:10;8.10;1.00
13850;DHT22;6995;52.618;13.488;2023-01-08T08:41:35;8.10;1.00
13850;DHT22;6995;52.618;13.488;2023-01-08T08:44:01;8.10;1.00
13850;DHT22;6995;52.618;13.488;2023-01-08T08:46:28;8.10;1.00
13850;DHT22;6995;52.618;13.488;2023-01-08T08:48:53;8.10;1.00
13850;DHT22;6995;52.618;13.488;2023-01-08T08:51:19;8.20;1.00
13850;DHT22;6995;52.618;13.488;2023-01-08T08:53:45;8.10;1.00
13850;DHT22;6995;52.618;13.488;2023-01-08T08:56:10;8.20;1.00
13850;DHT22;6995;52.618;13.488;2023-01-08T08:58:36;8.10;1.00
13850;DHT22;6995;52.618;13.488;2023-01-08T09:01:03;8.20;1.00
13850;DHT22;6995;52.618;13.488;2023-01-08T09:03:29;8.20;1.00
13850;DHT22;6995;52.618;13.488;2023-01-08T09:05:55;8.20;1.00
13850;DHT22;6995;52.618;13.488;2023-01-08T09:08:21;8.20;1.00
13850;DHT22;6995;52.618;13.488;2023-01-08T09:10:46;8.30;1.00
13850;DHT22;6995;52.618;13.488;2023-01-08T09:13:12;8.30;1.00
13850;DHT22;6995;52.618;13.488;2023-01-08T09:15:38;8.30;1.00
13850;DHT22;6995;52.618;13.488;2023-01-08T09:18:04;8.40;1.00
13850;DHT22;6995;52.618;13.488;2023-01-08T09:20:30;8.40;1.00
13850;DHT22;6995;52.618;13.488;2023-01-08T09:23:00;8.40;1.00
13850;DHT22;6995;52.618;13.488;2023-01-08T09:25:26;8.50;99.90
13850;DHT22;6995;52.618;13.488;2023-01-08T09:28:06;8.60;1.00
13850;DHT22;6995;52.618;13.488;2023-01-08T09:30:33;8.80;99.90
13850;DHT22;6995;52.618;13.488;2023-01-08T09:32:59;8.80;99.90
13850;DHT22;6995;52.618;13.488;2023-01-08T09:35:25;8.90;99.90
13850;DHT22;6995;52.618;13.488;2023-01-08T09:37:52;9.00;99.90
13850;DHT22;6995;52.618;13.488;2023-01-08T09:40:19;9.00;99.90
13850;DHT22;6995;52.618;13.488;2023-01-08T09:42:59;9.00;99.90
13850;DHT22;6995;52.618;13.488;2023-01-08T09:45:35;8.90;99.90
13850;DHT22;6995;52.618;13.488;2023-01-08T09:48:06;9.00;99.90
13850;DHT22;6995;52.618;13.488;2023-01-08T09:50:33;8.90;99.90
13850;DHT22;6995;52.618;13.488;2023-01-08T09:52:59;8.80;99.90
13850;DHT22;6995;52.618;13.488;2023-01-08T09:55:29;8.80;99.90
13850;DHT22;6995;52.618;13.488;2023-01-08T09:57:55;8.80;99.90
13850;DHT22;6995;52.618;13.488;2023-01-08T10:00:27;8.80;99.90
13850;DHT22;6995;52.618;13.488;2023-01-08T10:02:54;8.70;99.90
13850;DHT22;6995;52.618;13.488;2023-01-08T10:05:20;8.70;99.90
13850;DHT22;6995;52.618;13.488;2023-01-08T10:07:46;8.70;1.40
13850;DHT22;6995;52.618;13.488;2023-01-08T10:10:21;8.70;1.00
13850;DHT22;6995;52.618;13.488;2023-01-08T10:12:48;8.70;1.40
13850;DHT22;6995;52.618;13.488;2023-01-08T10:15:16;8.70;1.00
13850;DHT22;6995;52.618;13.488;2023-01-08T10:18:03;8.70;1.40
13850;DHT22;6995;52.618;13.488;2023-01-08T10:20:31;8.70;1.40
13850;DHT22;6995;52.618;13.488;2023-01-08T10:23:08;8.70;1.00
13850;DHT22;6995;52.618;13.488;2023-01-08T10:25:53;8.70;1.00
13850;DHT22;6995;52.618;13.488;2023-01-08T10:30:46;8.60;1.00
13850;DHT22;6995;52.618;13.488;2023-01-08T10:33:20;8.60;1.00
13850;DHT22;6995;52.618;13.488;2023-01-08T10:36:15;8.70;1.00
13850;DHT22;6995;52.618;13.488;2023-01-08T10:38:48;8.70;1.00
13850;DHT22;6995;52.618;13.488;2023-01-08T10:41:16;8.70;1.00
13850;DHT22;6995;52.618;13.488;2023-01-08T10:43:58;8.70;1.00
13850;DHT22;6995;52.618;13.488;2023-01-08T10:46:26;8.70;1.00
13850;DHT22;6995;52.618;13.488;2023-01-08T10:49:00;8.90;1.00
13850;DHT22;6995;52.618;13.488;2023-01-08T10:51:28;8.80;1.00
13850;DHT22;6995;52.618;13.488;2023-01-08T10:53:59;8.90;1.00
13850;DHT22;6995;52.618;13.488;2023-01-08T10:56:27;9.00;1.00
13850;DHT22;6995;52.618;13.488;2023-01-08T10:58:54;9.00;1.00
13850;DHT22;6995;52.618;13.488;2023-01-08T11:01:28;9.10;1.00
13850;DHT22;6995;52.618;13.488;2023-01-08T11:03:58;9.10;1.00
13850;DHT22;6995;52.618;13.488;2023-01-08T11:06:32;9.00;1.00
13850;DHT22;6995;52.618;13.488;2023-01-08T11:09:00;9.00;1.00
13850;DHT22;6995;52.618;13.488;2023-01-08T11:11:36;9.00;1.00
13850;DHT22;6995;52.618;13.488;2023-01-08T11:14:04;9.00;1.00
13850;DHT22;6995;52.618;13.488;2023-01-08T11:16:39;9.10;1.00
13850;DHT22;6995;52.618;13.488;2023-01-08T11:19:32;9.00;1.00
13850;DHT22;6995;52.618;13.488;2023-01-08T11:22:16;9.00;1.00
13850;DHT22;6995;52.618;13.488;2023-01-08T11:24:42;9.20;1.00
13850;DHT22;6995;52.618;13.488;2023-01-08T11:30:05;9.30;1.00
13850;DHT22;6995;52.618;13.488;2023-01-08T11:32:53;9.40;1.00
13850;DHT22;6995;52.618;13.488;2023-01-08T11:35:47;9.60;1.00
13850;DHT22;6995;52.618;13.488;2023-01-08T11:38:14;9.70;1.00
13850;DHT22;6995;52.618;13.488;2023-01-08T11:54:35;9.70;99.90
13850;DHT22;6995;52.618;13.488;2023-01-08T12:05:29;9.60;99.90
13850;DHT22;6995;52.618;13.488;2023-01-08T12:08:01;9.60;99.90
13850;DHT22;6995;52.618;13.488;2023-01-08T12:16:18;9.70;99.90
13850;DHT22;6995;52.618;13.488;2023-01-08T12:18:50;9.70;99.90
13850;DHT22;6995;52.618;13.488;2023-01-08T12:21:27;9.60;99.90
13850;DHT22;6995;52.618;13.488;2023-01-08T12:40:37;10.00;99.90
13850;DHT22;6995;52.618;13.488;2023-01-08T12:43:11;10.00;99.90
13850;DHT22;6995;52.618;13.488;2023-01-08T12:45:43;9.90;99.90
13850;DHT22;6995;52.618;13.488;2023-01-08T12:48:14;9.80;99.90
13850;DHT22;6995;52.618;13.488;2023-01-08T13:07:44;9.70;99.90
13850;DHT22;6995;52.618;13.488;2023-01-08T13:13:06;9.60;99.90
13850;DHT22;6995;52.618;13.488;2023-01-08T13:15:33;9.60;99.90
13850;DHT22;6995;52.618;13.488;2023-01-08T13:18:17;9.50;99.90
13850;DHT22;6995;52.618;13.488;2023-01-08T13:20:54;9.50;99.90
13850;DHT22;6995;52.618;13.488;2023-01-08T13:23:24;9.50;99.90
13850;DHT22;6995;52.618;13.488;2023-01-08T13:25:56;9.50;99.90
13850;DHT22;6995;52.618;13.488;2023-01-08T13:28:44;9.50;99.90
13850;DHT22;6995;52.618;13.488;2023-01-08T13:33:45;9.40;99.90
13850;DHT22;6995;52.618;13.488;2023-01-08T13:38:45;9.30;99.90
13850;DHT22;6995;52.618;13.488;2023-01-08T13:41:34;9.30;99.90
13850;DHT22;6995;52.618;13.488;2023-01-08T13:44:04;9.30;99.90
13850;DHT22;6995;52.618;13.488;2023-01-08T13:46:32;9.30;99.90
13850;DHT22;6995;52.618;13.488;2023-01-08T13:49:07;9.30;99.90
13850;DHT22;6995;52.618;13.488;2023-01-08T13:56:41;9.20;99.90
13850;DHT22;6995;52.618;13.488;2023-01-08T13:59:20;9.20;1.00
13850;DHT22;6995;52.618;13.488;2023-01-08T14:01:53;9.20;1.00
13850;DHT22;6995;52.618;13.488;2023-01-08T14:04:20;9.20;1.00
13850;DHT22;6995;52.618;13.488;2023-01-08T14:06:47;9.20;1.00
13850;DHT22;6995;52.618;13.488;2023-01-08T14:09:22;9.10;1.00
13850;DHT22;6995;52.618;13.488;2023-01-08T14:11:51;9.10;1.00
13850;DHT22;6995;52.618;13.488;2023-01-08T14:14:19;9.10;1.00
13850;DHT22;6995;52.618;13.488;2023-01-08T14:16:46;9.10;1.00
13850;DHT22;6995;52.618;13.488;2023-01-08T14:19:23;9.00;1.00
13850;DHT22;6995;52.618;13.488;2023-01-08T14:21:55;9.00;1.00
13850;DHT22;6995;52.618;13.488;2023-01-08T14:24:24;9.00;1.00
13850;DHT22;6995;52.618;13.488;2023-01-08T14:26:58;9.00;1.00
13850;DHT22;6995;52.618;13.488;2023-01-08T14:29:27;8.90;1.00
13850;DHT22;6995;52.618;13.488;2023-01-08T14:31:58;8.90;1.00
13850;DHT22;6995;52.618;13.488;2023-01-08T14:34:27;8.90;1.00
13850;DHT22;6995;52.618;13.488;2023-01-08T14:36:54;8.80;1.00
13850;DHT22;6995;52.618;13.488;2023-01-08T14:39:25;8.80;1.00
13850;DHT22;6995;52.618;13.488;2023-01-08T14:42:00;8.80;1.00
13850;DHT22;6995;52.618;13.488;2023-01-08T14:44:53;8.80;1.00
13850;DHT22;6995;52.618;13.488;2023-01-08T14:47:19;8.80;1.00
13850;DHT22;6995;52.618;13.488;2023-01-08T14:49:50;8.80;1.00
13850;DHT22;6995;52.618;13.488;2023-01-08T14:52:17;8.80;1.00
13850;DHT22;6995;52.618;13.488;2023-01-08T14:54:47;8.80;1.00
13850;DHT22;6995;52.618;13.488;2023-01-08T14:57:14;8.80;1.00
13850;DHT22;6995;52.618;13.488;2023-01-08T14:59:41;8.70;1.00
13850;DHT22;6995;52.618;13.488;2023-01-08T15:02:21;8.70;1.00
13850;DHT22;6995;52.618;13.488;2023-01-08T15:04:47;8.60;1.00
13850;DHT22;6995;52.618;13.488;2023-01-08T15:07:22;8.60;1.00
13850;DHT22;6995;52.618;13.488;2023-01-08T15:09:56;8.60;1.00
13850;DHT22;6995;52.618;13.488;2023-01-08T15:12:25;8.60;1.00
13850;DHT22;6995;52.618;13.488;2023-01-08T15:14:51;8.60;1.00
13850;DHT22;6995;52.618;13.488;2023-01-08T15:17:21;8.60;1.00
13850;DHT22;6995;52.618;13.488;2023-01-08T15:19:55;8.50;1.00
13850;DHT22;6995;52.618;13.488;2023-01-08T15:22:26;8.50;1.00
13850;DHT22;6995;52.618;13.488;2023-01-08T15:25:00;8.50;1.00
13850;DHT22;6995;52.618;13.488;2023-01-08T15:27:27;8.50;1.00
13850;DHT22;6995;52.618;13.488;2023-01-08T15:29:56;8.50;1.00
13850;DHT22;6995;52.618;13.488;2023-01-08T15:32:33;8.50;1.00
13850;DHT22;6995;52.618;13.488;2023-01-08T15:35:22;8.50;1.00
13850;DHT22;6995;52.618;13.488;2023-01-08T15:37:50;8.40;1.00
13850;DHT22;6995;52.618;13.488;2023-01-08T15:40:15;8.40;1.00
13850;DHT22;6995;52.618;13.488;2023-01-08T15:42:42;8.40;1.00
13850;DHT22;6995;52.618;13.488;2023-01-08T15:45:28;8.40;1.00
13850;DHT22;6995;52.618;13.488;2023-01-08T15:47:57;8.30;1.00
13850;DHT22;6995;52.618;13.488;2023-01-08T15:50:24;8.30;1.00
13850;DHT22;6995;52.618;13.488;2023-01-08T15:52:53;8.40;1.00
13850;DHT22;6995;52.618;13.488;2023-01-08T15:55:23;8.30;1.00
13850;DHT22;6995;52.618;13.488;2023-01-08T15:57:49;8.40;1.00
13850;DHT22;6995;52.618;13.488;2023-01-08T16:00:17;8.40;1.00
13850;DHT22;6995;52.618;13.488;2023-01-08T16:02:47;8.40;1.00
13850;DHT22;6995;52.618;13.488;2023-01-08T16:05:14;8.30;1.00
13850;DHT22;6995;52.618;13.488;2023-01-08T16:07:43;8.30;1.00
13850;DHT22;6995;52.618;13.488;2023-01-08T16:10:15;8.30;1.00
13850;DHT22;6995;52.618;13.488;2023-01-08T16:12:41;8.30;1.00
13850;DHT22;6995;52.618;13.488;2023-01-08T16:15:11;8.30;1.00
13850;DHT22;6995;52.618;13.488;2023-01-08T16:17:37;8.40;1.00
13850;DHT22;6995;52.618;13.488;2023-01-08T16:20:03;8.40;1.00
13850;DHT22;6995;52.618;13.488;2023-01-08T16:22:29;8.40;1.00
13850;DHT22;6995;52.618;13.488;2023-01-08T16:24:55;8.40;1.00
13850;DHT22;6995;52.618;13.488;2023-01-08T16:27:20;8.40;1.00
13850;DHT22;6995;52.618;13.488;2023-01-08T16:29:46;8.50;1.00
13850;DHT22;6995;52.618;13.488;2023-01-08T16:32:12;8.60;1.00
13850;DHT22;6995;52.618;13.488;2023-01-08T16:34:37;8.50;1.00
13850;DHT22;6995;52.618;13.488;2023-01-08T16:37:03;8.50;1.00
13850;DHT22;6995;52.618;13.488;2023-01-08T16:39:29;8.50;1.00
13850;DHT22;6995;52.618;13.488;2023-01-08T16:41:56;8.60;1.00
13850;DHT22;6995;52.618;13.488;2023-01-08T16:44:24;8.60;1.00
13850;DHT22;6995;52.618;13.488;2023-01-08T16:46:50;8.50;1.00
13850;DHT22;6995;52.618;13.488;2023-01-08T16:49:16;8.60;1.00
13850;DHT22;6995;52.618;13.488;2023-01-08T16:51:42;8.60;1.00
13850;DHT22;6995;52.618;13.488;2023-01-08T16:54:11;8.60;1.00
13850;DHT22;6995;52.618;13.488;2023-01-08T16:56:37;8.60;1.00
13850;DHT22;6995;52.618;13.488;2023-01-08T16:59:02;8.50;1.00
13850;DHT22;6995;52.618;13.488;2023-01-08T17:01:28;8.50;1.00
13850;DHT22;6995;52.618;13.488;2023-01-08T17:03:54;8.60;1.00
13850;DHT22;6995;52.618;13.488;2023-01-08T17:06:19;8.60;1.00
13850;DHT22;6995;52.618;13.488;2023-01-08T17:08:45;8.60;1.00
13850;DHT22;6995;52.618;13.488;2023-01-08T17:11:14;8.60;1.00
13850;DHT22;6995;52.618;13.488;2023-01-08T17:13:40;8.50;1.00
13850;DHT22;6995;52.618;13.488;2023-01-08T17:16:08;8.50;1.00
13850;DHT22;6995;52.618;13.488;2023-01-08T17:18:34;8.40;1.00
13850;DHT22;6995;52.618;13.488;2023-01-08T17:21:00;8.40;1.00
13850;DHT22;6995;52.618;13.488;2023-01-08T17:23:26;8.40;1.00
13850;DHT22;6995;52.618;13.488;2023-01-08T17:25:57;8.40;1.00
13850;DHT22;6995;52.618;13.488;2023-01-08T17:28:24;8.30;1.00
13850;DHT22;6995;52.618;13.488;2023-01-08T17:30:53;8.30;1.00
13850;DHT22;6995;52.618;13.488;2023-01-08T17:33:19;8.20;1.00
13850;DHT22;6995;52.618;13.488;2023-01-08T17:35:46;8.20;1.00
13850;DHT22;6995;52.618;13.488;2023-01-08T17:38:12;8.10;1.00
13850;DHT22;6995;52.618;13.488;2023-01-08T17:40:38;8.00;1.00
13850;DHT22;6995;52.618;13.488;2023-01-08T17:43:03;7.90;1.00
13850;DHT22;6995;52.618;13.488;2023-01-08T17:45:29;7.80;1.00
13850;DHT22;6995;52.618;13.488;2023-01-08T17:47:55;7.80;1.00
13850;DHT22;6995;52.618;13.488;2023-01-08T17:50:20;7.70;1.00
13850;DHT22;6995;52.618;13.488;2023-01-08T17:52:46;7.70;1.00
13850;DHT22;6995;52.618;13.488;2023-01-08T17:55:11;7.60;1.00
13850;DHT22;6995;52.618;13.488;2023-01-08T17:57:38;7.60;1.00
13850;DHT22;6995;52.618;13.488;2023-01-08T18:00:04;7.50;1.00
13850;DHT22;6995;52.618;13.488;2023-01-08T18:02:30;7.50;1.00
13850;DHT22;6995;52.618;13.488;2023-01-08T18:04:56;7.50;1.00
13850;DHT22;6995;52.618;13.488;2023-01-08T18:07:21;7.50;1.00
13850;DHT22;6995;52.618;13.488;2023-01-08T18:09:48;7.40;1.00
13850;DHT22;6995;52.618;13.488;2023-01-08T18:12:17;7.50;1.00
13850;DHT22;6995;52.618;13.488;2023-01-08T18:14:43;7.50;1.00
13850;DHT22;6995;52.618;13.488;2023-01-08T18:17:09;7.40;1.00
13850;DHT22;6995;52.618;13.488;2023-01-08T18:19:34;7.40;1.00
13850;DHT22;6995;52.618;13.488;2023-01-08T18:22:00;7.40;1.00
13850;DHT22;6995;52.618;13.488;2023-01-08T18:24:26;7.40;1.00
13850;DHT22;6995;52.618;13.488;2023-01-08T18:26:51;7.40;1.00
13850;DHT22;6995;52.618;13.488;2023-01-08T18:29:17;7.50;1.00
13850;DHT22;6995;52.618;13.488;2023-01-08T18:31:43;7.50;1.00
13850;DHT22;6995;52.618;13.488;2023-01-08T18:34:08;7.40;1.00
13850;DHT22;6995;52.618;13.488;2023-01-08T18:36:34;7.40;1.00
13850;DHT22;6995;52.618;13.488;2023-01-08T18:39:03;7.40;1.00
13850;DHT22;6995;52.618;13.488;2023-01-08T18:41:29;7.40;1.00
13850;DHT22;6995;52.618;13.488;2023-01-08T18:44:13;7.40;1.00
13850;DHT22;6995;52.618;13.488;2023-01-08T18:46:38;7.30;1.00
13850;DHT22;6995;52.618;13.488;2023-01-08T18:49:04;7.30;1.00
13850;DHT22;6995;52.618;13.488;2023-01-08T18:51:30;7.30;1.00
13850;DHT22;6995;52.618;13.488;2023-01-08T18:53:55;7.30;1.00
13850;DHT22;6995;52.618;13.488;2023-01-08T18:56:27;7.30;1.00
13850;DHT22;6995;52.618;13.488;2023-01-08T18:58:54;7.30;1.00
13850;DHT22;6995;52.618;13.488;2023-01-08T19:01:19;7.30;1.00
13850;DHT22;6995;52.618;13.488;2023-01-08T19:03:45;7.20;1.00
13850;DHT22;6995;52.618;13.488;2023-01-08T19:06:15;7.20;1.00
13850;DHT22;6995;52.618;13.488;2023-01-08T19:08:41;7.20;1.00
13850;DHT22;6995;52.618;13.488;2023-01-08T19:11:08;7.10;1.00
13850;DHT22;6995;52.618;13.488;2023-01-08T19:13:34;7.10;1.00
13850;DHT22;6995;52.618;13.488;2023-01-08T19:16:07;7.20;1.00
13850;DHT22;6995;52.618;13.488;2023-01-08T19:18:43;7.20;1.00
13850;DHT22;6995;52.618;13.488;2023-01-08T19:21:10;7.10;1.00
13850;DHT22;6995;52.618;13.488;2023-01-08T19:23:39;7.10;1.00
13850;DHT22;6995;52.618;13.488;2023-01-08T19:26:06;7.00;1.00
13850;DHT22;6995;52.618;13.488;2023-01-08T19:28:32;7.00;1.00
13850;DHT22;6995;52.618;13.488;2023-01-08T19:30:59;7.00;1.00
13850;DHT22;6995;52.618;13.488;2023-01-08T19:33:25;7.00;1.00
13850;DHT22;6995;52.618;13.488;2023-01-08T19:35:51;7.10;1.00
13850;DHT22;6995;52.618;13.488;2023-01-08T19:38:17;7.20;1.00
13850;DHT22;6995;52.618;13.488;2023-01-08T19:40:43;7.30;1.00
13850;DHT22;6995;52.618;13.488;2023-01-08T19:43:11;7.30;1.00
13850;DHT22;6995;52.618;13.488;2023-01-08T19:45:55;7.40;1.00
13850;DHT22;6995;52.618;13.488;2023-01-08T19:48:23;7.40;1.00
13850;DHT22;6995;52.618;13.488;2023-01-08T19:50:49;7.50;1.00
13850;DHT22;6995;52.618;13.488;2023-01-08T19:53:14;7.50;1.00
13850;DHT22;6995;52.618;13.488;2023-01-08T19:55:40;7.40;1.00
13850;DHT22;6995;52.618;13.488;2023-01-08T19:58:06;7.40;1.00
13850;DHT22;6995;52.618;13.488;2023-01-08T20:00:32;7.40;1.00
13850;DHT22;6995;52.618;13.488;2023-01-08T20:03:02;7.40;1.00
13850;DHT22;6995;52.618;13.488;2023-01-08T20:05:30;7.30;1.00
13850;DHT22;6995;52.618;13.488;2023-01-08T20:07:56;7.40;1.00
13850;DHT22;6995;52.618;13.488;2023-01-08T20:10:22;7.40;1.00
13850;DHT22;6995;52.618;13.488;2023-01-08T20:12:47;7.40;1.00
13850;DHT22;6995;52.618;13.488;2023-01-08T20:15:16;7.40;1.00
13850;DHT22;6995;52.618;13.488;2023-01-08T20:17:42;7.50;1.00
13850;DHT22;6995;52.618;13.488;2023-01-08T20:20:09;7.50;1.00
13850;DHT22;6995;52.618;13.488;2023-01-08T20:22:35;7.50;1.00
13850;DHT22;6995;52.618;13.488;2023-01-08T20:25:01;7.50;1.00
13850;DHT22;6995;52.618;13.488;2023-01-08T20:27:27;7.40;1.00
13850;DHT22;6995;52.618;13.488;2023-01-08T20:29:53;7.40;1.00
13850;DHT22;6995;52.618;13.488;2023-01-08T20:32:19;7.30;1.00
13850;DHT22;6995;52.618;13.488;2023-01-08T20:34:44;7.30;1.00
13850;DHT22;6995;52.618;13.488;2023-01-08T20:37:10;7.20;1.00
13850;DHT22;6995;52.618;13.488;2023-01-08T20:39:36;7.10;1.00
13850;DHT22;6995;52.618;13.488;2023-01-08T20:42:02;7.10;1.00
13850;DHT22;6995;52.618;13.488;2023-01-08T20:44:27;7.00;1.00
13850;DHT22;6995;52.618;13.488;2023-01-08T20:46:53;6.90;1.00
13850;DHT22;6995;52.618;13.488;2023-01-08T20:49:19;6.90;1.00
13850;DHT22;6995;52.618;13.488;2023-01-08T20:51:45;6.80;1.00
13850;DHT22;6995;52.618;13.488;2023-01-08T20:54:13;6.80;1.00
13850;DHT22;6995;52.618;13.488;2023-01-08T20:56:41;6.80;1.00
13850;DHT22;6995;52.618;13.488;2023-01-08T20:59:07;6.90;1.00
13850;DHT22;6995;52.618;13.488;2023-01-08T21:01:33;6.90;1.00
13850;DHT22;6995;52.618;13.488;2023-01-08T21:04:00;6.90;1.00
13850;DHT22;6995;52.618;13.488;2023-01-08T21:06:29;7.00;1.00
13850;DHT22;6995;52.618;13.488;2023-01-08T21:08:57;7.00;1.00
13850;DHT22;6995;52.618;13.488;2023-01-08T21:11:24;7.00;1.00
13850;DHT22;6995;52.618;13.488;2023-01-08T21:13:51;7.00;1.00
13850;DHT22;6995;52.618;13.488;2023-01-08T21:16:24;7.00;1.00
13850;DHT22;6995;52.618;13.488;2023-01-08T21:18:51;7.10;1.00
13850;DHT22;6995;52.618;13.488;2023-01-08T21:21:21;7.10;1.00
13850;DHT22;6995;52.618;13.488;2023-01-08T21:23:47;7.10;1.00
13850;DHT22;6995;52.618;13.488;2023-01-08T21:26:14;7.10;1.00
13850;DHT22;6995;52.618;13.488;2023-01-08T21:28:40;7.20;1.00
13850;DHT22;6995;52.618;13.488;2023-01-08T21:31:08;7.20;1.00
13850;DHT22;6995;52.618;13.488;2023-01-08T21:33:34;7.20;1.00
13850;DHT22;6995;52.618;13.488;2023-01-08T21:36:04;7.30;1.00
13850;DHT22;6995;52.618;13.488;2023-01-08T21:38:32;7.30;1.00
13850;DHT22;6995;52.618;13.488;2023-01-08T21:40:59;7.20;1.00
13850;DHT22;6995;52.618;13.488;2023-01-08T21:43:25;7.20;1.00
13850;DHT22;6995;52.618;13.488;2023-01-08T21:46:10;7.30;1.00
13850;DHT22;6995;52.618;13.488;2023-01-08T21:48:36;7.30;1.00
13850;DHT22;6995;52.618;13.488;2023-01-08T21:51:02;7.20;1.00
13850;DHT22;6995;52.618;13.488;2023-01-08T21:53:27;7.30;1.00
13850;DHT22;6995;52.618;13.488;2023-01-08T21:55:57;7.30;1.00
13850;DHT22;6995;52.618;13.488;2023-01-08T21:58:24;7.20;1.00
13850;DHT22;6995;52.618;13.488;2023-01-08T22:00:50;7.20;1.00
13850;DHT22;6995;52.618;13.488;2023-01-08T22:03:16;7.20;1.00